Terminal Aerodrome Forecast
Issued by NWS Wilmington, OH

Current Version | Previous Version | Text Only | Print | Product List | Glossary Off
Versions: 1 2 3 4 5 6 7 8 9 10 11 12 13 14 15

000
FTUS41 KILN 270500 RRA
TAFILN
TAF
KILN 270545Z 2706/2806 22004KT P6SM SCT200
     FM270700 23003KT 4SM BR BKN200
     FM271300 33006KT P6SM SCT040 BKN100
     FM271500 35007KT P6SM VCTS BKN060CB
     FM272000 01005KT P6SM BKN090
     FM280000 04005KT P6SM SCT100 BKN250=

USA.gov is the U.S. government's official web portal to all federal, state and local government web resources and services.